sensor_id;sensor_type;location;lat;lon;timestamp;P1;durP1;ratioP1;P2;durP2;ratioP2
15393;SDS011;7795;47.986;11.868;2022-11-20T00:00:43;2.07;;;1.77;;
15393;SDS011;7795;47.986;11.868;2022-11-20T00:03:09;2.30;;;1.50;;
15393;SDS011;7795;47.986;11.868;2022-11-20T00:05:34;2.20;;;2.00;;
15393;SDS011;7795;47.986;11.868;2022-11-20T00:08:01;3.63;;;1.87;;
15393;SDS011;7795;47.986;11.868;2022-11-20T00:10:27;2.40;;;1.53;;
15393;SDS011;7795;47.986;11.868;2022-11-20T00:12:53;1.43;;;1.30;;
15393;SDS011;7795;47.986;11.868;2022-11-20T00:15:19;1.40;;;1.30;;
15393;SDS011;7795;47.986;11.868;2022-11-20T00:17:44;2.17;;;1.40;;
15393;SDS011;7795;47.986;11.868;2022-11-20T00:20:11;1.60;;;1.50;;
15393;SDS011;7795;47.986;11.868;2022-11-20T00:22:38;1.50;;;1.10;;
15393;SDS011;7795;47.986;11.868;2022-11-20T00:25:05;1.27;;;1.17;;
15393;SDS011;7795;47.986;11.868;2022-11-20T00:27:31;2.10;;;1.13;;
15393;SDS011;7795;47.986;11.868;2022-11-20T00:29:57;1.40;;;1.30;;
15393;SDS011;7795;47.986;11.868;2022-11-20T00:32:23;1.30;;;1.20;;
15393;SDS011;7795;47.986;11.868;2022-11-20T00:34:48;2.40;;;1.30;;
15393;SDS011;7795;47.986;11.868;2022-11-20T00:37:14;1.37;;;1.07;;
15393;SDS011;7795;47.986;11.868;2022-11-20T00:39:40;1.87;;;1.20;;
15393;SDS011;7795;47.986;11.868;2022-11-20T00:42:07;0.97;;;0.97;;
15393;SDS011;7795;47.986;11.868;2022-11-20T00:44:33;1.57;;;1.20;;
15393;SDS011;7795;47.986;11.868;2022-11-20T00:46:58;1.33;;;1.27;;
15393;SDS011;7795;47.986;11.868;2022-11-20T00:49:24;1.40;;;1.03;;
15393;SDS011;7795;47.986;11.868;2022-11-20T00:51:50;2.53;;;1.37;;
15393;SDS011;7795;47.986;11.868;2022-11-20T00:54:16;1.23;;;1.13;;
15393;SDS011;7795;47.986;11.868;2022-11-20T00:56:41;1.40;;;1.23;;
15393;SDS011;7795;47.986;11.868;2022-11-20T00:59:09;1.50;;;1.40;;
15393;SDS011;7795;47.986;11.868;2022-11-20T01:01:36;1.77;;;1.30;;
15393;SDS011;7795;47.986;11.868;2022-11-20T01:04:02;1.27;;;1.17;;
15393;SDS011;7795;47.986;11.868;2022-11-20T01:06:29;1.40;;;1.10;;
15393;SDS011;7795;47.986;11.868;2022-11-20T01:08:56;1.70;;;1.23;;
15393;SDS011;7795;47.986;11.868;2022-11-20T01:11:24;1.63;;;1.40;;
15393;SDS011;7795;47.986;11.868;2022-11-20T01:13:52;2.27;;;1.50;;
15393;SDS011;7795;47.986;11.868;2022-11-20T01:16:21;1.67;;;1.40;;
15393;SDS011;7795;47.986;11.868;2022-11-20T01:18:48;1.20;;;1.10;;
15393;SDS011;7795;47.986;11.868;2022-11-20T01:21:16;1.43;;;1.33;;
15393;SDS011;7795;47.986;11.868;2022-11-20T01:23:43;1.40;;;1.23;;
15393;SDS011;7795;47.986;11.868;2022-11-20T01:26:10;1.60;;;1.30;;
15393;SDS011;7795;47.986;11.868;2022-11-20T01:28:38;1.50;;;1.30;;
15393;SDS011;7795;47.986;11.868;2022-11-20T01:31:10;1.17;;;1.17;;
15393;SDS011;7795;47.986;11.868;2022-11-20T01:33:39;2.00;;;1.40;;
15393;SDS011;7795;47.986;11.868;2022-11-20T01:36:06;2.23;;;1.40;;
15393;SDS011;7795;47.986;11.868;2022-11-20T01:38:33;1.47;;;1.37;;
15393;SDS011;7795;47.986;11.868;2022-11-20T01:40:59;2.63;;;1.53;;
15393;SDS011;7795;47.986;11.868;2022-11-20T01:43:25;1.60;;;1.50;;
15393;SDS011;7795;47.986;11.868;2022-11-20T01:45:59;1.47;;;1.30;;
15393;SDS011;7795;47.986;11.868;2022-11-20T01:48:28;1.07;;;1.03;;
15393;SDS011;7795;47.986;11.868;2022-11-20T01:51:00;1.33;;;1.23;;
15393;SDS011;7795;47.986;11.868;2022-11-20T01:53:28;1.50;;;1.40;;
15393;SDS011;7795;47.986;11.868;2022-11-20T01:55:57;2.60;;;1.50;;
15393;SDS011;7795;47.986;11.868;2022-11-20T01:58:26;1.50;;;1.40;;
15393;SDS011;7795;47.986;11.868;2022-11-20T02:00:55;1.53;;;1.43;;
15393;SDS011;7795;47.986;11.868;2022-11-20T02:03:21;1.33;;;1.20;;
15393;SDS011;7795;47.986;11.868;2022-11-20T02:05:47;2.03;;;1.70;;
15393;SDS011;7795;47.986;11.868;2022-11-20T02:08:18;1.40;;;1.30;;
15393;SDS011;7795;47.986;11.868;2022-11-20T02:10:44;2.33;;;1.70;;
15393;SDS011;7795;47.986;11.868;2022-11-20T02:13:10;1.47;;;1.37;;
15393;SDS011;7795;47.986;11.868;2022-11-20T02:15:54;1.53;;;1.43;;
15393;SDS011;7795;47.986;11.868;2022-11-20T02:18:20;1.40;;;1.20;;
15393;SDS011;7795;47.986;11.868;2022-11-20T02:20:48;1.60;;;1.50;;
15393;SDS011;7795;47.986;11.868;2022-11-20T02:23:20;1.70;;;1.60;;
15393;SDS011;7795;47.986;11.868;2022-11-20T02:25:51;1.43;;;1.33;;
15393;SDS011;7795;47.986;11.868;2022-11-20T02:28:19;1.83;;;1.50;;
15393;SDS011;7795;47.986;11.868;2022-11-20T02:30:46;2.07;;;1.50;;
15393;SDS011;7795;47.986;11.868;2022-11-20T02:33:12;1.73;;;1.50;;
15393;SDS011;7795;47.986;11.868;2022-11-20T02:35:44;2.00;;;1.60;;
15393;SDS011;7795;47.986;11.868;2022-11-20T02:38:11;2.00;;;1.40;;
15393;SDS011;7795;47.986;11.868;2022-11-20T02:40:37;2.10;;;1.83;;
15393;SDS011;7795;47.986;11.868;2022-11-20T02:43:04;1.97;;;1.70;;
15393;SDS011;7795;47.986;11.868;2022-11-20T02:45:30;1.53;;;1.27;;
15393;SDS011;7795;47.986;11.868;2022-11-20T02:47:56;2.27;;;1.40;;
15393;SDS011;7795;47.986;11.868;2022-11-20T02:50:22;2.20;;;1.37;;
15393;SDS011;7795;47.986;11.868;2022-11-20T02:52:48;2.17;;;1.57;;
15393;SDS011;7795;47.986;11.868;2022-11-20T02:55:14;2.40;;;1.87;;
15393;SDS011;7795;47.986;11.868;2022-11-20T02:57:39;2.17;;;1.80;;
15393;SDS011;7795;47.986;11.868;2022-11-20T03:00:07;1.73;;;1.63;;
15393;SDS011;7795;47.986;11.868;2022-11-20T03:02:34;2.30;;;1.83;;
15393;SDS011;7795;47.986;11.868;2022-11-20T03:05:00;2.73;;;1.90;;
15393;SDS011;7795;47.986;11.868;2022-11-20T03:07:25;2.90;;;2.37;;
15393;SDS011;7795;47.986;11.868;2022-11-20T03:09:51;1.70;;;1.57;;
15393;SDS011;7795;47.986;11.868;2022-11-20T03:12:17;2.00;;;1.80;;
15393;SDS011;7795;47.986;11.868;2022-11-20T03:14:43;2.00;;;1.70;;
15393;SDS011;7795;47.986;11.868;2022-11-20T03:17:10;2.70;;;2.00;;
15393;SDS011;7795;47.986;11.868;2022-11-20T03:19:36;2.00;;;1.63;;
15393;SDS011;7795;47.986;11.868;2022-11-20T03:22:02;2.97;;;2.13;;
15393;SDS011;7795;47.986;11.868;2022-11-20T03:24:28;3.17;;;2.13;;
15393;SDS011;7795;47.986;11.868;2022-11-20T03:26:53;2.33;;;1.83;;
15393;SDS011;7795;47.986;11.868;2022-11-20T03:29:19;2.67;;;2.03;;
15393;SDS011;7795;47.986;11.868;2022-11-20T03:31:45;2.00;;;1.83;;
15393;SDS011;7795;47.986;11.868;2022-11-20T03:34:12;2.40;;;1.80;;
15393;SDS011;7795;47.986;11.868;2022-11-20T03:36:38;2.33;;;1.80;;
15393;SDS011;7795;47.986;11.868;2022-11-20T03:39:04;2.43;;;1.67;;
15393;SDS011;7795;47.986;11.868;2022-11-20T03:41:30;2.50;;;2.00;;
15393;SDS011;7795;47.986;11.868;2022-11-20T03:44:01;2.37;;;2.17;;
15393;SDS011;7795;47.986;11.868;2022-11-20T03:46:28;2.17;;;1.97;;
15393;SDS011;7795;47.986;11.868;2022-11-20T03:48:54;1.93;;;1.63;;
15393;SDS011;7795;47.986;11.868;2022-11-20T03:51:22;2.10;;;1.90;;
15393;SDS011;7795;47.986;11.868;2022-11-20T03:53:49;2.07;;;1.83;;
15393;SDS011;7795;47.986;11.868;2022-11-20T03:56:17;2.13;;;1.70;;
15393;SDS011;7795;47.986;11.868;2022-11-20T03:58:44;1.80;;;1.70;;
15393;SDS011;7795;47.986;11.868;2022-11-20T04:01:11;1.97;;;1.77;;
15393;SDS011;7795;47.986;11.868;2022-11-20T04:03:39;2.00;;;1.70;;
15393;SDS011;7795;47.986;11.868;2022-11-20T04:06:06;2.20;;;2.00;;
15393;SDS011;7795;47.986;11.868;2022-11-20T04:08:35;2.70;;;1.57;;
15393;SDS011;7795;47.986;11.868;2022-11-20T04:11:08;1.87;;;1.77;;
15393;SDS011;7795;47.986;11.868;2022-11-20T04:13:37;1.80;;;1.70;;
15393;SDS011;7795;47.986;11.868;2022-11-20T04:16:04;3.17;;;1.90;;
15393;SDS011;7795;47.986;11.868;2022-11-20T04:18:30;2.70;;;2.00;;
15393;SDS011;7795;47.986;11.868;2022-11-20T04:20:56;1.77;;;1.67;;
15393;SDS011;7795;47.986;11.868;2022-11-20T04:23:22;1.93;;;1.73;;
15393;SDS011;7795;47.986;11.868;2022-11-20T04:25:49;2.43;;;1.60;;
15393;SDS011;7795;47.986;11.868;2022-11-20T04:28:15;1.67;;;1.57;;
15393;SDS011;7795;47.986;11.868;2022-11-20T04:30:41;2.57;;;2.10;;
15393;SDS011;7795;47.986;11.868;2022-11-20T04:33:07;1.70;;;1.60;;
15393;SDS011;7795;47.986;11.868;2022-11-20T04:35:33;2.20;;;2.00;;
15393;SDS011;7795;47.986;11.868;2022-11-20T04:37:59;2.60;;;2.40;;
15393;SDS011;7795;47.986;11.868;2022-11-20T04:40:25;2.57;;;2.20;;
15393;SDS011;7795;47.986;11.868;2022-11-20T04:42:52;2.20;;;2.00;;
15393;SDS011;7795;47.986;11.868;2022-11-20T04:45:18;2.10;;;1.90;;
15393;SDS011;7795;47.986;11.868;2022-11-20T04:47:43;1.90;;;1.80;;
15393;SDS011;7795;47.986;11.868;2022-11-20T04:50:09;2.37;;;1.90;;
15393;SDS011;7795;47.986;11.868;2022-11-20T04:52:35;1.90;;;1.80;;
15393;SDS011;7795;47.986;11.868;2022-11-20T04:55:01;2.40;;;2.20;;
15393;SDS011;7795;47.986;11.868;2022-11-20T04:57:26;3.00;;;2.00;;
15393;SDS011;7795;47.986;11.868;2022-11-20T04:59:53;1.93;;;1.77;;
15393;SDS011;7795;47.986;11.868;2022-11-20T05:02:19;2.27;;;1.90;;
15393;SDS011;7795;47.986;11.868;2022-11-20T05:04:45;2.13;;;1.73;;
15393;SDS011;7795;47.986;11.868;2022-11-20T05:07:11;2.47;;;1.90;;
15393;SDS011;7795;47.986;11.868;2022-11-20T05:09:37;2.13;;;1.67;;
15393;SDS011;7795;47.986;11.868;2022-11-20T05:12:03;1.90;;;1.70;;
15393;SDS011;7795;47.986;11.868;2022-11-20T05:14:29;2.07;;;1.87;;
15393;SDS011;7795;47.986;11.868;2022-11-20T05:16:56;1.90;;;1.70;;
15393;SDS011;7795;47.986;11.868;2022-11-20T05:19:22;2.90;;;1.87;;
15393;SDS011;7795;47.986;11.868;2022-11-20T05:21:47;2.23;;;1.80;;
15393;SDS011;7795;47.986;11.868;2022-11-20T05:24:13;2.27;;;1.73;;
15393;SDS011;7795;47.986;11.868;2022-11-20T05:26:39;3.43;;;1.90;;
15393;SDS011;7795;47.986;11.868;2022-11-20T05:29:05;2.03;;;1.70;;
15393;SDS011;7795;47.986;11.868;2022-11-20T05:31:30;2.50;;;2.10;;
15393;SDS011;7795;47.986;11.868;2022-11-20T05:33:58;3.77;;;3.47;;
15393;SDS011;7795;47.986;11.868;2022-11-20T05:36:23;2.93;;;2.70;;
15393;SDS011;7795;47.986;11.868;2022-11-20T05:38:49;2.30;;;2.10;;
15393;SDS011;7795;47.986;11.868;2022-11-20T05:41:16;2.50;;;2.30;;
15393;SDS011;7795;47.986;11.868;2022-11-20T05:43:43;2.77;;;2.53;;
15393;SDS011;7795;47.986;11.868;2022-11-20T05:46:11;2.77;;;2.57;;
15393;SDS011;7795;47.986;11.868;2022-11-20T05:48:38;3.20;;;2.90;;
15393;SDS011;7795;47.986;11.868;2022-11-20T05:51:07;2.93;;;2.50;;
15393;SDS011;7795;47.986;11.868;2022-11-20T05:53:35;2.37;;;2.17;;
15393;SDS011;7795;47.986;11.868;2022-11-20T05:56:02;2.70;;;2.50;;
15393;SDS011;7795;47.986;11.868;2022-11-20T05:58:30;2.77;;;2.47;;
15393;SDS011;7795;47.986;11.868;2022-11-20T06:01:02;3.63;;;2.70;;
15393;SDS011;7795;47.986;11.868;2022-11-20T06:03:30;3.50;;;2.50;;
15393;SDS011;7795;47.986;11.868;2022-11-20T06:05:55;3.70;;;2.37;;
15393;SDS011;7795;47.986;11.868;2022-11-20T06:08:22;2.63;;;2.30;;
15393;SDS011;7795;47.986;11.868;2022-11-20T06:10:48;3.83;;;2.23;;
15393;SDS011;7795;47.986;11.868;2022-11-20T06:13:14;2.50;;;2.30;;
15393;SDS011;7795;47.986;11.868;2022-11-20T06:15:39;3.07;;;2.83;;
15393;SDS011;7795;47.986;11.868;2022-11-20T06:18:05;2.90;;;2.37;;
15393;SDS011;7795;47.986;11.868;2022-11-20T06:20:31;3.33;;;2.73;;
15393;SDS011;7795;47.986;11.868;2022-11-20T06:22:57;3.37;;;2.50;;
15393;SDS011;7795;47.986;11.868;2022-11-20T06:25:24;3.37;;;2.17;;
15393;SDS011;7795;47.986;11.868;2022-11-20T06:27:49;2.83;;;2.60;;
15393;SDS011;7795;47.986;11.868;2022-11-20T06:30:15;5.17;;;2.43;;
15393;SDS011;7795;47.986;11.868;2022-11-20T06:32:41;2.37;;;2.17;;
15393;SDS011;7795;47.986;11.868;2022-11-20T06:35:07;3.00;;;2.53;;
15393;SDS011;7795;47.986;11.868;2022-11-20T06:37:34;4.10;;;3.20;;
15393;SDS011;7795;47.986;11.868;2022-11-20T06:39:59;2.93;;;2.40;;
15393;SDS011;7795;47.986;11.868;2022-11-20T06:42:26;3.83;;;2.30;;
15393;SDS011;7795;47.986;11.868;2022-11-20T06:44:52;2.53;;;2.33;;
15393;SDS011;7795;47.986;11.868;2022-11-20T06:47:18;2.73;;;2.37;;
15393;SDS011;7795;47.986;11.868;2022-11-20T06:49:44;2.40;;;2.20;;
15393;SDS011;7795;47.986;11.868;2022-11-20T06:52:09;2.33;;;2.13;;
15393;SDS011;7795;47.986;11.868;2022-11-20T06:54:35;2.60;;;1.93;;
15393;SDS011;7795;47.986;11.868;2022-11-20T06:57:01;2.23;;;1.80;;
15393;SDS011;7795;47.986;11.868;2022-11-20T06:59:28;3.13;;;2.30;;
15393;SDS011;7795;47.986;11.868;2022-11-20T07:01:53;2.80;;;2.00;;
15393;SDS011;7795;47.986;11.868;2022-11-20T07:04:19;2.20;;;2.00;;
15393;SDS011;7795;47.986;11.868;2022-11-20T07:06:45;1.70;;;1.60;;
15393;SDS011;7795;47.986;11.868;2022-11-20T07:09:11;2.40;;;2.20;;
15393;SDS011;7795;47.986;11.868;2022-11-20T07:11:36;3.03;;;2.30;;
15393;SDS011;7795;47.986;11.868;2022-11-20T07:14:02;2.73;;;2.53;;
15393;SDS011;7795;47.986;11.868;2022-11-20T07:16:29;1.80;;;1.70;;
15393;SDS011;7795;47.986;11.868;2022-11-20T07:18:55;4.23;;;2.57;;
15393;SDS011;7795;47.986;11.868;2022-11-20T07:21:21;2.20;;;2.00;;
15393;SDS011;7795;47.986;11.868;2022-11-20T07:23:46;6.47;;;5.87;;
15393;SDS011;7795;47.986;11.868;2022-11-20T07:26:12;7.57;;;6.73;;
15393;SDS011;7795;47.986;11.868;2022-11-20T07:28:38;4.60;;;4.20;;
15393;SDS011;7795;47.986;11.868;2022-11-20T07:31:04;5.17;;;3.23;;
15393;SDS011;7795;47.986;11.868;2022-11-20T07:33:33;4.27;;;2.60;;
15393;SDS011;7795;47.986;11.868;2022-11-20T07:35:58;2.53;;;2.33;;
15393;SDS011;7795;47.986;11.868;2022-11-20T07:38:25;2.60;;;2.40;;
15393;SDS011;7795;47.986;11.868;2022-11-20T07:40:53;2.00;;;1.80;;
15393;SDS011;7795;47.986;11.868;2022-11-20T07:43:19;3.33;;;2.70;;
15393;SDS011;7795;47.986;11.868;2022-11-20T07:45:45;2.40;;;2.20;;
15393;SDS011;7795;47.986;11.868;2022-11-20T07:48:11;2.57;;;2.30;;
15393;SDS011;7795;47.986;11.868;2022-11-20T07:50:38;3.83;;;2.40;;
15393;SDS011;7795;47.986;11.868;2022-11-20T07:53:04;2.93;;;1.97;;
15393;SDS011;7795;47.986;11.868;2022-11-20T07:55:30;2.70;;;2.50;;
15393;SDS011;7795;47.986;11.868;2022-11-20T07:57:56;4.77;;;2.80;;
15393;SDS011;7795;47.986;11.868;2022-11-20T08:00:23;6.87;;;3.00;;
15393;SDS011;7795;47.986;11.868;2022-11-20T08:02:49;2.70;;;2.17;;
15393;SDS011;7795;47.986;11.868;2022-11-20T08:05:15;3.10;;;2.30;;
15393;SDS011;7795;47.986;11.868;2022-11-20T08:07:43;3.47;;;2.40;;
15393;SDS011;7795;47.986;11.868;2022-11-20T08:10:10;3.00;;;2.33;;
15393;SDS011;7795;47.986;11.868;2022-11-20T08:12:42;1.77;;;1.67;;
15393;SDS011;7795;47.986;11.868;2022-11-20T08:15:28;1.70;;;1.60;;
15393;SDS011;7795;47.986;11.868;2022-11-20T08:17:59;1.97;;;1.87;;
15393;SDS011;7795;47.986;11.868;2022-11-20T08:20:26;1.57;;;1.47;;
15393;SDS011;7795;47.986;11.868;2022-11-20T08:22:53;2.87;;;2.00;;
15393;SDS011;7795;47.986;11.868;2022-11-20T08:25:23;2.80;;;1.90;;
15393;SDS011;7795;47.986;11.868;2022-11-20T08:27:49;1.40;;;1.27;;
15393;SDS011;7795;47.986;11.868;2022-11-20T08:30:15;1.60;;;1.50;;
15393;SDS011;7795;47.986;11.868;2022-11-20T08:32:41;1.37;;;1.27;;
15393;SDS011;7795;47.986;11.868;2022-11-20T08:35:07;2.00;;;1.30;;
15393;SDS011;7795;47.986;11.868;2022-11-20T08:37:33;1.67;;;1.40;;
15393;SDS011;7795;47.986;11.868;2022-11-20T08:40:00;4.03;;;1.80;;
15393;SDS011;7795;47.986;11.868;2022-11-20T08:42:26;1.60;;;1.50;;
15393;SDS011;7795;47.986;11.868;2022-11-20T08:44:52;2.63;;;2.03;;
15393;SDS011;7795;47.986;11.868;2022-11-20T08:47:17;2.20;;;2.00;;
15393;SDS011;7795;47.986;11.868;2022-11-20T08:49:43;1.70;;;1.37;;
15393;SDS011;7795;47.986;11.868;2022-11-20T08:52:09;1.83;;;1.60;;
15393;SDS011;7795;47.986;11.868;2022-11-20T08:54:34;2.17;;;1.97;;
15393;SDS011;7795;47.986;11.868;2022-11-20T08:57:01;1.40;;;1.27;;
15393;SDS011;7795;47.986;11.868;2022-11-20T08:59:27;2.57;;;1.60;;
15393;SDS011;7795;47.986;11.868;2022-11-20T09:01:53;5.47;;;2.10;;
15393;SDS011;7795;47.986;11.868;2022-11-20T09:04:19;1.40;;;1.30;;
15393;SDS011;7795;47.986;11.868;2022-11-20T09:06:45;1.53;;;1.20;;
15393;SDS011;7795;47.986;11.868;2022-11-20T09:09:10;1.20;;;1.10;;
15393;SDS011;7795;47.986;11.868;2022-11-20T09:11:36;1.50;;;1.40;;
15393;SDS011;7795;47.986;11.868;2022-11-20T09:14:03;2.60;;;1.33;;
15393;SDS011;7795;47.986;11.868;2022-11-20T09:16:29;1.23;;;1.07;;
15393;SDS011;7795;47.986;11.868;2022-11-20T09:18:55;1.30;;;1.20;;
15393;SDS011;7795;47.986;11.868;2022-11-20T09:21:21;1.50;;;1.40;;
15393;SDS011;7795;47.986;11.868;2022-11-20T09:23:47;1.27;;;1.17;;
15393;SDS011;7795;47.986;11.868;2022-11-20T09:26:13;1.30;;;1.20;;
15393;SDS011;7795;47.986;11.868;2022-11-20T09:28:39;1.10;;;0.97;;
15393;SDS011;7795;47.986;11.868;2022-11-20T09:31:07;1.60;;;1.10;;
15393;SDS011;7795;47.986;11.868;2022-11-20T09:33:34;1.20;;;1.00;;
15393;SDS011;7795;47.986;11.868;2022-11-20T09:36:01;1.10;;;1.00;;
15393;SDS011;7795;47.986;11.868;2022-11-20T09:38:27;1.40;;;1.20;;
15393;SDS011;7795;47.986;11.868;2022-11-20T09:40:54;2.13;;;1.20;;
15393;SDS011;7795;47.986;11.868;2022-11-20T09:43:24;2.50;;;1.83;;
15393;SDS011;7795;47.986;11.868;2022-11-20T09:46:00;1.60;;;1.50;;
15393;SDS011;7795;47.986;11.868;2022-11-20T09:48:47;1.10;;;1.03;;
15393;SDS011;7795;47.986;11.868;2022-11-20T09:51:36;2.77;;;1.20;;
15393;SDS011;7795;47.986;11.868;2022-11-20T09:54:14;1.43;;;1.20;;
15393;SDS011;7795;47.986;11.868;2022-11-20T09:56:43;0.90;;;0.90;;
15393;SDS011;7795;47.986;11.868;2022-11-20T09:59:15;1.20;;;1.10;;
15393;SDS011;7795;47.986;11.868;2022-11-20T10:01:53;1.57;;;1.30;;
15393;SDS011;7795;47.986;11.868;2022-11-20T10:04:20;1.30;;;1.20;;
15393;SDS011;7795;47.986;11.868;2022-11-20T10:06:47;1.27;;;1.17;;
15393;SDS011;7795;47.986;11.868;2022-11-20T10:09:22;1.67;;;1.43;;
15393;SDS011;7795;47.986;11.868;2022-11-20T10:11:58;1.33;;;1.00;;
15393;SDS011;7795;47.986;11.868;2022-11-20T10:14:36;1.43;;;1.10;;
15393;SDS011;7795;47.986;11.868;2022-11-20T10:17:16;1.27;;;1.20;;
15393;SDS011;7795;47.986;11.868;2022-11-20T10:19:56;0.80;;;0.80;;
15393;SDS011;7795;47.986;11.868;2022-11-20T10:22:35;1.10;;;1.10;;
15393;SDS011;7795;47.986;11.868;2022-11-20T10:25:13;1.20;;;0.97;;
15393;SDS011;7795;47.986;11.868;2022-11-20T10:27:56;1.43;;;0.97;;
15393;SDS011;7795;47.986;11.868;2022-11-20T10:30:32;1.27;;;1.00;;
15393;SDS011;7795;47.986;11.868;2022-11-20T10:33:05;2.43;;;2.07;;
15393;SDS011;7795;47.986;11.868;2022-11-20T10:35:37;1.03;;;0.93;;
15393;SDS011;7795;47.986;11.868;2022-11-20T10:38:08;2.20;;;1.10;;
15393;SDS011;7795;47.986;11.868;2022-11-20T10:40:40;2.23;;;0.83;;
15393;SDS011;7795;47.986;11.868;2022-11-20T10:43:10;1.10;;;1.10;;
15393;SDS011;7795;47.986;11.868;2022-11-20T10:45:46;1.27;;;1.17;;
15393;SDS011;7795;47.986;11.868;2022-11-20T10:48:22;1.37;;;1.17;;
15393;SDS011;7795;47.986;11.868;2022-11-20T10:50:54;1.93;;;1.30;;
15393;SDS011;7795;47.986;11.868;2022-11-20T10:53:38;1.67;;;1.50;;
15393;SDS011;7795;47.986;11.868;2022-11-20T10:56:13;1.30;;;1.20;;
15393;SDS011;7795;47.986;11.868;2022-11-20T10:58:45;1.63;;;1.13;;
15393;SDS011;7795;47.986;11.868;2022-11-20T11:01:20;2.60;;;1.20;;
15393;SDS011;7795;47.986;11.868;2022-11-20T11:03:49;1.70;;;1.30;;
15393;SDS011;7795;47.986;11.868;2022-11-20T11:06:19;2.03;;;1.00;;
15393;SDS011;7795;47.986;11.868;2022-11-20T11:08:51;3.10;;;1.00;;
15393;SDS011;7795;47.986;11.868;2022-11-20T11:11:21;2.00;;;1.10;;
15393;SDS011;7795;47.986;11.868;2022-11-20T11:13:49;0.97;;;0.87;;
15393;SDS011;7795;47.986;11.868;2022-11-20T11:16:25;1.80;;;1.17;;
15393;SDS011;7795;47.986;11.868;2022-11-20T11:19:03;1.60;;;1.20;;
15393;SDS011;7795;47.986;11.868;2022-11-20T11:21:29;1.67;;;0.87;;
15393;SDS011;7795;47.986;11.868;2022-11-20T11:23:59;2.10;;;0.80;;
15393;SDS011;7795;47.986;11.868;2022-11-20T11:26:26;2.27;;;1.00;;
15393;SDS011;7795;47.986;11.868;2022-11-20T11:28:56;1.50;;;0.80;;
15393;SDS011;7795;47.986;11.868;2022-11-20T11:31:23;1.93;;;1.40;;
15393;SDS011;7795;47.986;11.868;2022-11-20T11:33:50;1.83;;;1.43;;
15393;SDS011;7795;47.986;11.868;2022-11-20T11:36:18;2.13;;;1.50;;
15393;SDS011;7795;47.986;11.868;2022-11-20T11:38:48;1.70;;;1.33;;
15393;SDS011;7795;47.986;11.868;2022-11-20T11:41:18;1.43;;;0.93;;
15393;SDS011;7795;47.986;11.868;2022-11-20T11:43:50;1.03;;;0.93;;
15393;SDS011;7795;47.986;11.868;2022-11-20T11:46:51;0.83;;;0.80;;
15393;SDS011;7795;47.986;11.868;2022-11-20T11:49:19;1.00;;;0.83;;
15393;SDS011;7795;47.986;11.868;2022-11-20T11:51:50;1.20;;;0.87;;
15393;SDS011;7795;47.986;11.868;2022-11-20T11:54:27;1.33;;;1.10;;
15393;SDS011;7795;47.986;11.868;2022-11-20T11:56:58;1.60;;;1.20;;
15393;SDS011;7795;47.986;11.868;2022-11-20T11:59:30;1.03;;;0.90;;
15393;SDS011;7795;47.986;11.868;2022-11-20T12:02:21;0.90;;;0.90;;
15393;SDS011;7795;47.986;11.868;2022-11-20T12:04:54;1.40;;;1.30;;
15393;SDS011;7795;47.986;11.868;2022-11-20T12:07:29;1.63;;;1.10;;
15393;SDS011;7795;47.986;11.868;2022-11-20T12:10:04;1.60;;;1.20;;
15393;SDS011;7795;47.986;11.868;2022-11-20T12:12:31;1.90;;;1.10;;
15393;SDS011;7795;47.986;11.868;2022-11-20T12:15:01;1.50;;;1.40;;
15393;SDS011;7795;47.986;11.868;2022-11-20T12:17:29;1.30;;;1.20;;
15393;SDS011;7795;47.986;11.868;2022-11-20T12:19:55;1.30;;;1.03;;
15393;SDS011;7795;47.986;11.868;2022-11-20T12:22:24;1.40;;;1.10;;
15393;SDS011;7795;47.986;11.868;2022-11-20T12:25:02;0.87;;;0.87;;
15393;SDS011;7795;47.986;11.868;2022-11-20T12:27:43;1.33;;;1.10;;
15393;SDS011;7795;47.986;11.868;2022-11-20T12:30:21;1.43;;;0.90;;
15393;SDS011;7795;47.986;11.868;2022-11-20T12:32:58;1.07;;;0.70;;
15393;SDS011;7795;47.986;11.868;2022-11-20T12:35:49;0.97;;;0.60;;
15393;SDS011;7795;47.986;11.868;2022-11-20T12:38:30;1.60;;;1.00;;
15393;SDS011;7795;47.986;11.868;2022-11-20T12:41:22;1.33;;;0.80;;
15393;SDS011;7795;47.986;11.868;2022-11-20T12:44:18;0.83;;;0.80;;
15393;SDS011;7795;47.986;11.868;2022-11-20T12:47:16;0.80;;;0.80;;
15393;SDS011;7795;47.986;11.868;2022-11-20T12:49:51;4.73;;;1.30;;
15393;SDS011;7795;47.986;11.868;2022-11-20T12:52:32;1.03;;;0.93;;
15393;SDS011;7795;47.986;11.868;2022-11-20T12:55:22;2.37;;;1.30;;
15393;SDS011;7795;47.986;11.868;2022-11-20T12:58:09;1.20;;;1.10;;
15393;SDS011;7795;47.986;11.868;2022-11-20T13:00:42;1.57;;;1.10;;
15393;SDS011;7795;47.986;11.868;2022-11-20T13:06:10;1.20;;;1.10;;
15393;SDS011;7795;47.986;11.868;2022-11-20T13:08:41;3.10;;;1.27;;
15393;SDS011;7795;47.986;11.868;2022-11-20T13:11:12;1.23;;;0.90;;
15393;SDS011;7795;47.986;11.868;2022-11-20T13:16:41;1.80;;;1.03;;
15393;SDS011;7795;47.986;11.868;2022-11-20T13:19:13;1.47;;;1.27;;
15393;SDS011;7795;47.986;11.868;2022-11-20T13:21:41;1.37;;;1.10;;
15393;SDS011;7795;47.986;11.868;2022-11-20T13:24:20;1.60;;;1.27;;
15393;SDS011;7795;47.986;11.868;2022-11-20T13:26:58;2.10;;;1.30;;
15393;SDS011;7795;47.986;11.868;2022-11-20T13:29:25;2.10;;;1.33;;
15393;SDS011;7795;47.986;11.868;2022-11-20T13:32:00;1.10;;;1.00;;
15393;SDS011;7795;47.986;11.868;2022-11-20T13:34:28;0.90;;;0.90;;
15393;SDS011;7795;47.986;11.868;2022-11-20T13:36:55;1.07;;;1.00;;
15393;SDS011;7795;47.986;11.868;2022-11-20T13:39:25;0.97;;;0.97;;
15393;SDS011;7795;47.986;11.868;2022-11-20T13:41:55;1.00;;;0.90;;
15393;SDS011;7795;47.986;11.868;2022-11-20T13:44:23;1.30;;;1.20;;
15393;SDS011;7795;47.986;11.868;2022-11-20T13:46:53;2.17;;;1.20;;
15393;SDS011;7795;47.986;11.868;2022-11-20T13:49:21;1.57;;;1.37;;
15393;SDS011;7795;47.986;11.868;2022-11-20T13:51:51;2.83;;;2.07;;
15393;SDS011;7795;47.986;11.868;2022-11-20T13:54:35;3.43;;;2.53;;
15393;SDS011;7795;47.986;11.868;2022-11-20T14:00:09;6.20;;;4.00;;
15393;SDS011;7795;47.986;11.868;2022-11-20T14:02:37;5.73;;;3.77;;
15393;SDS011;7795;47.986;11.868;2022-11-20T14:05:04;5.13;;;3.13;;
15393;SDS011;7795;47.986;11.868;2022-11-20T14:07:31;3.03;;;2.40;;
15393;SDS011;7795;47.986;11.868;2022-11-20T14:10:01;3.57;;;2.43;;
15393;SDS011;7795;47.986;11.868;2022-11-20T14:12:28;5.30;;;3.27;;
15393;SDS011;7795;47.986;11.868;2022-11-20T14:14:56;6.03;;;4.30;;
15393;SDS011;7795;47.986;11.868;2022-11-20T14:17:23;5.43;;;3.73;;
15393;SDS011;7795;47.986;11.868;2022-11-20T14:19:53;4.63;;;2.40;;
15393;SDS011;7795;47.986;11.868;2022-11-20T14:22:21;4.23;;;2.90;;
15393;SDS011;7795;47.986;11.868;2022-11-20T14:25:00;3.07;;;2.43;;
15393;SDS011;7795;47.986;11.868;2022-11-20T14:27:28;1.33;;;1.23;;
15393;SDS011;7795;47.986;11.868;2022-11-20T14:29:55;1.33;;;1.13;;
15393;SDS011;7795;47.986;11.868;2022-11-20T14:32:21;0.97;;;0.97;;
15393;SDS011;7795;47.986;11.868;2022-11-20T14:34:53;1.27;;;1.17;;
15393;SDS011;7795;47.986;11.868;2022-11-20T14:37:20;1.20;;;1.13;;
15393;SDS011;7795;47.986;11.868;2022-11-20T14:39:48;1.87;;;1.30;;
15393;SDS011;7795;47.986;11.868;2022-11-20T14:42:18;1.33;;;1.23;;
15393;SDS011;7795;47.986;11.868;2022-11-20T14:44:45;2.13;;;1.73;;
15393;SDS011;7795;47.986;11.868;2022-11-20T14:47:15;1.50;;;1.40;;
15393;SDS011;7795;47.986;11.868;2022-11-20T14:49:44;2.13;;;1.50;;
15393;SDS011;7795;47.986;11.868;2022-11-20T14:52:11;1.80;;;1.30;;
15393;SDS011;7795;47.986;11.868;2022-11-20T14:54:43;1.93;;;1.30;;
15393;SDS011;7795;47.986;11.868;2022-11-20T14:57:19;2.20;;;1.53;;
15393;SDS011;7795;47.986;11.868;2022-11-20T14:59:47;1.50;;;1.40;;
15393;SDS011;7795;47.986;11.868;2022-11-20T15:02:14;1.70;;;1.40;;
15393;SDS011;7795;47.986;11.868;2022-11-20T15:04:44;2.20;;;1.50;;
15393;SDS011;7795;47.986;11.868;2022-11-20T15:07:10;1.20;;;1.10;;